Time;durP1;ratioP1;P1;durP2;ratioP2;P2;SDS_P1;SDS_P2;PMS_P1;PMS_P2;Temp;Humidity;BMP_temperature;BMP_pressure;BME280_temperature;BME280_humidity;BME280_pressure;Samples;Min_cycle;Max_cycle;Signal;HPM_P1;HPM_P2
2021/06/17 00:00:35;;;;;;;8.93;5.50;;;17.00;99.90;;;;;;5033287;28;20029;-56
2021/06/17 00:03:02;;;;;;;9.23;5.85;;;17.00;99.90;;;;;;4989984;28;20477;-56
2021/06/17 00:05:31;;;;;;;8.70;5.47;;;17.00;99.90;;;;;;5000337;28;20073;-57
2021/06/17 00:07:57;;;;;;;7.10;5.60;;;17.00;99.90;;;;;;5026665;28;20088;-57
2021/06/17 00:10:33;;;;;;;8.75;6.40;;;17.00;99.90;;;;;;5001311;28;20037;-57
2021/06/17 00:13:03;;;;;;;7.90;5.60;;;17.00;99.90;;;;;;5028543;28;20029;-56
2021/06/17 00:15:33;;;;;;;10.18;6.00;;;17.00;99.90;;;;;;5027007;28;20040;-56
2021/06/17 00:17:59;;;;;;;7.88;6.15;;;16.90;99.90;;;;;;5030683;28;20037;-56
2021/06/17 00:20:26;;;;;;;8.68;6.40;;;16.80;99.90;;;;;;5024679;28;20125;-56
2021/06/17 00:22:53;;;;;;;11.70;7.30;;;16.70;99.90;;;;;;5002238;28;20034;-56
2021/06/17 00:25:20;;;;;;;10.65;7.03;;;;;;;;;;5006434;28;20058;-56
2021/06/17 00:27:45;;;;;;;11.43;7.30;;;16.60;99.90;;;;;;5004650;28;20041;-56
2021/06/17 00:30:13;;;;;;;10.55;6.30;;;16.50;99.90;;;;;;5007008;28;20605;-56
2021/06/17 00:32:39;;;;;;;8.15;6.80;;;16.50;99.90;;;;;;5003541;28;20526;-56
2021/06/17 00:35:06;;;;;;;7.75;5.93;;;16.40;99.90;;;;;;4980014;28;20066;-56
2021/06/17 00:37:32;;;;;;;9.48;6.88;;;16.40;99.90;;;;;;5000888;28;20043;-56
2021/06/17 00:40:09;;;;;;;10.85;6.78;;;16.40;99.90;;;;;;5007086;28;20034;-56
2021/06/17 00:42:43;;;;;;;10.63;6.75;;;16.40;99.90;;;;;;5005118;28;20034;-56
2021/06/17 00:45:13;;;;;;;8.85;5.90;;;16.30;99.90;;;;;;5001875;28;20034;-56
2021/06/17 00:47:42;;;;;;;10.30;6.57;;;16.30;99.90;;;;;;5006077;28;20656;-56
2021/06/17 00:50:09;;;;;;;8.30;5.88;;;16.20;99.90;;;;;;5005672;28;20026;-56
2021/06/17 00:52:35;;;;;;;8.98;6.72;;;16.30;99.90;;;;;;5004130;28;20030;-57
2021/06/17 00:55:01;;;;;;;12.32;7.10;;;16.20;99.90;;;;;;4991748;28;20038;-57
2021/06/17 00:57:27;;;;;;;10.55;6.25;;;16.20;99.90;;;;;;5017822;28;20052;-56
2021/06/17 00:59:53;;;;;;;9.95;7.65;;;16.20;99.90;;;;;;5018938;28;20026;-56
2021/06/17 01:02:19;;;;;;;18.88;16.10;;;16.30;99.90;;;;;;5020068;28;20071;-56
2021/06/17 01:04:45;;;;;;;42.05;36.40;;;16.30;99.90;;;;;;5036638;28;20094;-56
2021/06/17 01:07:16;;;;;;;22.75;18.58;;;16.30;99.90;;;;;;5029643;28;20041;-56
2021/06/17 01:10:02;;;;;;;12.52;10.35;;;16.40;99.90;;;;;;5020875;28;20077;-56
2021/06/17 01:12:53;;;;;;;11.27;8.77;;;16.40;99.90;;;;;;5030771;28;20041;-56
2021/06/17 01:15:21;;;;;;;9.80;7.68;;;16.40;99.90;;;;;;5025139;28;20029;-56
2021/06/17 01:18:06;;;;;;;10.88;8.45;;;16.30;99.90;;;;;;5026974;28;20065;-56
2021/06/17 01:21:09;;;;;;;11.45;7.72;;;16.30;99.90;;;;;;4993683;28;20038;-56
2021/06/17 01:24:06;;;;;;;13.40;8.25;;;16.20;99.90;;;;;;4979648;28;20047;-56
2021/06/17 01:27:10;;;;;;;9.43;6.88;;;16.20;99.90;;;;;;4983613;28;20038;-56
2021/06/17 01:29:40;;;;;;;7.72;6.30;;;16.20;99.90;;;;;;4965228;28;20757;-56
2021/06/17 01:32:08;;;;;;;7.80;6.68;;;16.20;99.90;;;;;;4982761;28;20161;-56
2021/06/17 01:34:35;;;;;;;9.90;6.97;;;16.10;99.90;;;;;;4986202;28;20042;-56
2021/06/17 01:37:07;;;;;;;8.90;6.40;;;16.10;99.90;;;;;;4982895;28;20037;-56
2021/06/17 01:39:36;;;;;;;8.88;6.20;;;16.00;99.90;;;;;;4982781;28;20086;-56
2021/06/17 01:42:05;;;;;;;8.82;6.53;;;16.00;99.90;;;;;;4984775;28;20061;-57
2021/06/17 01:44:32;;;;;;;10.52;6.35;;;15.90;99.90;;;;;;4983190;28;20479;-56
2021/06/17 01:46:59;;;;;;;9.32;6.15;;;15.90;99.90;;;;;;4973357;28;20089;-56
2021/06/17 01:49:26;;;;;;;8.23;6.03;;;15.90;99.90;;;;;;4979434;28;20046;-57
2021/06/17 01:51:54;;;;;;;8.02;6.13;;;15.80;99.90;;;;;;4987504;28;20493;-55
2021/06/17 01:54:21;;;;;;;8.25;6.00;;;15.70;99.90;;;;;;4973405;28;20465;-55
2021/06/17 01:56:51;;;;;;;8.25;6.30;;;15.60;99.90;;;;;;4985805;28;20038;-56
2021/06/17 01:59:19;;;;;;;6.55;5.60;;;15.60;99.90;;;;;;5005183;28;20041;-56
2021/06/17 02:01:46;;;;;;;11.02;6.70;;;15.60;99.90;;;;;;5024651;28;20488;-56
2021/06/17 02:04:13;;;;;;;9.32;6.30;;;15.60;99.90;;;;;;5029636;28;20033;-55
2021/06/17 02:06:41;;;;;;;8.38;6.20;;;15.60;99.90;;;;;;5029940;28;20080;-57
2021/06/17 02:09:08;;;;;;;9.23;6.30;;;15.60;99.90;;;;;;5026994;28;20057;-56
2021/06/17 02:11:36;;;;;;;8.60;6.18;;;15.60;99.90;;;;;;5025086;28;20112;-56
2021/06/17 02:14:03;;;;;;;9.63;6.75;;;15.50;99.90;;;;;;4985911;28;20549;-56
2021/06/17 02:16:32;;;;;;;7.95;6.40;;;15.50;99.90;;;;;;4997554;28;20133;-56
2021/06/17 02:18:59;;;;;;;9.73;6.65;;;15.50;99.90;;;;;;5025655;28;20473;-56
2021/06/17 02:21:28;;;;;;;10.52;7.28;;;15.50;99.90;;;;;;5032584;28;20033;-56
2021/06/17 02:23:58;;;;;;;11.15;6.85;;;15.50;99.90;;;;;;5033649;28;20119;-56
2021/06/17 02:26:26;;;;;;;8.80;6.38;;;15.40;99.90;;;;;;5032554;28;20092;-56
2021/06/17 02:28:53;;;;;;;7.78;6.22;;;15.40;99.90;;;;;;5022749;28;20080;-56
2021/06/17 02:31:26;;;;;;;7.40;5.57;;;15.40;99.90;;;;;;5033252;28;20037;-56
2021/06/17 02:33:52;;;;;;;7.55;6.28;;;15.40;99.90;;;;;;5026909;28;20061;-56
2021/06/17 02:36:25;;;;;;;7.10;5.93;;;15.30;99.90;;;;;;5031861;28;20056;-56
2021/06/17 02:38:58;;;;;;;7.68;6.13;;;15.30;99.90;;;;;;5031738;28;20385;-55
2021/06/17 02:41:26;;;;;;;9.27;6.15;;;15.30;99.90;;;;;;5032413;28;20040;-55
2021/06/17 02:43:57;;;;;;;8.30;6.53;;;15.30;99.90;;;;;;5032174;28;20096;-55
2021/06/17 02:46:23;;;;;;;11.95;6.72;;;15.30;99.90;;;;;;5031117;28;20029;-56
2021/06/17 02:48:53;;;;;;;14.48;8.30;;;15.30;99.90;;;;;;5019564;28;20057;-56
2021/06/17 02:51:20;;;;;;;10.40;7.20;;;15.40;99.90;;;;;;5020052;28;20056;-55
2021/06/17 02:53:46;;;;;;;17.42;6.82;;;15.40;99.90;;;;;;5000118;28;20034;-56
2021/06/17 02:56:16;;;;;;;12.63;6.20;;;15.50;99.90;;;;;;5026781;28;20508;-56
2021/06/17 02:59:04;;;;;;;8.45;6.57;;;15.40;99.90;;;;;;5029352;28;20468;-55
2021/06/17 03:01:36;;;;;;;10.98;8.07;;;15.50;99.90;;;;;;5030962;28;20033;-56
2021/06/17 03:04:28;;;;;;;;;;;15.50;99.90;;;;;;5027710;28;20496;-57
2021/06/17 03:06:55;;;;;;;53.78;35.75;;;15.40;99.90;;;;;;4999654;28;19913;-56
2021/06/17 03:09:37;;;;;;;89.63;66.85;;;15.50;99.90;;;;;;5028946;28;20036;-56
2021/06/17 03:12:05;;;;;;;40.03;29.90;;;15.50;99.90;;;;;;5030522;28;20036;-55
2021/06/17 03:14:37;;;;;;;59.42;45.65;;;15.50;99.90;;;;;;5026638;28;20037;-56
2021/06/17 03:17:05;;;;;;;59.30;44.00;;;15.60;99.90;;;;;;5029048;28;20113;-56
2021/06/17 03:19:34;;;;;;;78.20;61.28;;;15.60;99.90;;;;;;5031338;28;20376;-56
2021/06/17 03:22:03;;;;;;;52.40;32.85;;;15.60;99.90;;;;;;4968101;28;20045;-56
2021/06/17 03:24:33;;;;;;;62.30;49.40;;;15.60;99.90;;;;;;4990298;28;20043;-55
2021/06/17 03:27:01;;;;;;;15.05;12.02;;;15.70;99.90;;;;;;5025758;28;20139;-55
2021/06/17 03:29:33;;;;;;;13.88;6.85;;;15.70;99.90;;;;;;5027448;28;20500;-55
2021/06/17 03:32:00;;;;;;;16.40;7.00;;;15.70;99.90;;;;;;5023638;28;20024;-56
2021/06/17 03:34:28;;;;;;;11.23;7.70;;;15.70;99.90;;;;;;5020011;28;20370;-55
2021/06/17 03:36:57;;;;;;;13.63;7.18;;;15.70;99.90;;;;;;5026795;28;20033;-56
2021/06/17 03:39:24;;;;;;;10.63;6.78;;;15.70;99.90;;;;;;5026285;28;20044;-56
2021/06/17 03:41:51;;;;;;;11.52;6.97;;;15.80;99.90;;;;;;5032058;28;20029;-56
2021/06/17 03:44:17;;;;;;;16.45;7.93;;;15.80;99.90;;;;;;5003947;28;20087;-56
2021/06/17 03:46:45;;;;;;;9.95;7.70;;;15.80;99.90;;;;;;5030226;28;20547;-56
2021/06/17 03:49:12;;;;;;;13.55;7.93;;;15.90;99.90;;;;;;5027184;28;20083;-56
2021/06/17 03:51:39;;;;;;;12.75;7.60;;;16.00;99.90;;;;;;5025421;28;20057;-56
2021/06/17 03:54:06;;;;;;;12.75;7.90;;;16.10;99.90;;;;;;4984111;28;20535;-57
2021/06/17 03:56:32;;;;;;;10.55;7.63;;;16.10;99.90;;;;;;5027684;28;20401;-56
2021/06/17 03:58:59;;;;;;;15.63;9.05;;;16.10;99.90;;;;;;5030670;28;20044;-56
2021/06/17 04:01:25;;;;;;;16.13;9.05;;;16.10;99.90;;;;;;5029128;28;20018;-56
2021/06/17 04:03:51;;;;;;;14.15;8.10;;;16.10;99.90;;;;;;5027592;28;20025;-56
2021/06/17 04:06:17;;;;;;;16.13;7.65;;;16.10;99.90;;;;;;5024991;28;20439;-57
2021/06/17 04:08:47;;;;;;;17.20;9.63;;;16.10;99.90;;;;;;5026811;28;20603;-56
2021/06/17 04:11:14;;;;;;;15.98;8.48;;;16.20;99.90;;;;;;5022020;28;20025;-57
2021/06/17 04:13:42;;;;;;;13.55;8.98;;;16.20;99.90;;;;;;5001602;28;20439;-56
2021/06/17 04:16:12;;;;;;;15.07;8.80;;;16.20;99.90;;;;;;5031343;28;20040;-57
2021/06/17 04:18:39;;;;;;;15.07;9.48;;;16.20;99.90;;;;;;5027165;28;20033;-57
2021/06/17 04:21:08;;;;;;;13.85;9.05;;;16.30;99.90;;;;;;5026968;28;20048;-56
2021/06/17 04:23:36;;;;;;;14.00;10.32;;;16.30;99.90;;;;;;5026652;28;20038;-56
2021/06/17 04:26:02;;;;;;;16.65;9.95;;;16.40;99.90;;;;;;5024808;28;20049;-56
2021/06/17 04:28:30;;;;;;;15.93;9.68;;;16.50;99.90;;;;;;4996982;28;20049;-57
2021/06/17 04:30:58;;;;;;;14.90;10.15;;;16.50;99.90;;;;;;5018051;28;20033;-56
2021/06/17 04:33:26;;;;;;;19.20;10.57;;;16.60;99.90;;;;;;5019688;28;20088;-55
2021/06/17 04:35:54;;;;;;;15.35;10.40;;;16.70;99.90;;;;;;5012781;28;20504;-55
2021/06/17 04:38:20;;;;;;;14.73;9.73;;;16.90;99.90;;;;;;5013013;28;20032;-56
2021/06/17 04:40:47;;;;;;;15.05;8.93;;;17.00;99.90;;;;;;5026029;28;20063;-56
2021/06/17 04:43:14;;;;;;;16.48;9.70;;;17.00;99.90;;;;;;4998428;28;20504;-56
2021/06/17 04:45:43;;;;;;;18.30;9.82;;;17.10;99.90;;;;;;5011824;28;20087;-56
2021/06/17 04:48:11;;;;;;;11.68;8.13;;;17.20;99.90;;;;;;5017882;28;20373;-56
2021/06/17 04:50:40;;;;;;;12.73;9.27;;;17.30;99.90;;;;;;5024368;28;20490;-57
2021/06/17 04:53:11;;;;;;;16.90;9.63;;;17.40;99.90;;;;;;5026047;28;20104;-57
2021/06/17 04:55:49;;;;;;;13.60;8.20;;;17.60;99.90;;;;;;4998395;28;20034;-56
2021/06/17 04:58:15;;;;;;;12.35;8.93;;;17.70;99.90;;;;;;5007480;28;20524;-56
2021/06/17 05:00:41;;;;;;;10.68;8.10;;;17.80;99.90;;;;;;5029840;28;20029;-56
2021/06/17 05:03:07;;;;;;;13.35;8.82;;;17.90;99.90;;;;;;4978627;28;20034;-56
2021/06/17 05:05:33;;;;;;;10.70;8.60;;;18.00;99.90;;;;;;5028162;28;20453;-56
2021/06/17 05:10:56;;;;;;;18.00;9.48;;;18.00;99.90;;;;;;5027530;28;20094;-56
2021/06/17 05:13:22;;;;;;;14.07;9.82;;;18.10;99.90;;;;;;5014084;28;20100;-57
2021/06/17 05:15:49;;;;;;;12.68;9.80;;;18.10;99.90;;;;;;5003678;28;20030;-57
2021/06/17 05:18:17;;;;;;;13.88;9.45;;;18.20;99.90;;;;;;4999568;28;20041;-57
2021/06/17 05:20:43;;;;;;;15.15;8.60;;;18.30;99.90;;;;;;5001516;28;20042;-59
2021/06/17 05:23:11;;;;;;;15.32;9.65;;;18.50;99.90;;;;;;4987892;28;20027;-58
2021/06/17 05:25:37;;;;;;;13.98;8.80;;;18.60;99.90;;;;;;5003105;28;20041;-57
2021/06/17 05:28:03;;;;;;;10.15;9.07;;;18.70;99.90;;;;;;5003981;28;20120;-58
2021/06/17 05:30:29;;;;;;;13.15;7.97;;;;;;;;;;5001251;28;20080;-57
2021/06/17 05:32:55;;;;;;;10.90;8.07;;;;;;;;;;5005072;28;20028;-58
2021/06/17 05:35:21;;;;;;;15.88;8.10;;;19.40;99.90;;;;;;5001593;28;20038;-55
2021/06/17 05:37:49;;;;;;;9.25;7.85;;;;;;;;;;4926824;28;20104;-53
2021/06/17 05:40:15;;;;;;;11.27;7.53;;;20.00;99.90;;;;;;4988010;28;20037;-56
2021/06/17 05:42:40;;;;;;;9.45;7.53;;;20.20;99.90;;;;;;5004296;28;20394;-54
2021/06/17 05:45:07;;;;;;;14.30;7.97;;;20.40;99.90;;;;;;5003582;28;20032;-55
2021/06/17 05:47:32;;;;;;;11.15;8.05;;;20.60;99.90;;;;;;4995118;28;20045;-55
2021/06/17 05:49:58;;;;;;;12.63;7.28;;;20.70;99.90;;;;;;5013573;28;20033;-54
2021/06/17 05:52:24;;;;;;;8.27;6.82;;;20.90;99.90;;;;;;5014100;28;20034;-54
2021/06/17 05:54:50;;;;;;;10.68;6.95;;;21.20;99.90;;;;;;5012014;28;20038;-55
2021/06/17 05:57:15;;;;;;;13.07;6.10;;;21.30;99.90;;;;;;5013722;28;20048;-54
2021/06/17 05:59:41;;;;;;;11.13;6.80;;;21.60;99.90;;;;;;5015904;28;20030;-55
2021/06/17 06:02:10;;;;;;;8.23;6.10;;;22.00;99.90;;;;;;5011042;28;20117;-56
2021/06/17 06:04:36;;;;;;;9.75;5.60;;;;;;;;;;4989939;28;20037;-57
2021/06/17 06:07:02;;;;;;;8.32;5.50;;;22.10;99.90;;;;;;5014069;28;20080;-55
2021/06/17 06:09:28;;;;;;;8.13;5.68;;;;;;;;;;5013490;28;20049;-54
2021/06/17 06:11:54;;;;;;;9.32;5.57;;;22.30;99.90;;;;;;4978917;28;20500;-55
2021/06/17 06:14:19;;;;;;;11.80;5.50;;;22.30;99.90;;;;;;5014370;28;20116;-57
2021/06/17 06:16:46;;;;;;;13.20;6.93;;;;;;;;;;5012198;28;20053;-55
2021/06/17 06:19:12;;;;;;;13.55;6.05;;;22.20;99.90;;;;;;5029062;28;20069;-55
2021/06/17 06:21:38;;;;;;;13.57;6.03;;;22.20;99.90;;;;;;5023253;28;20057;-56
2021/06/17 06:24:04;;;;;;;11.43;5.85;;;22.30;99.90;;;;;;5015906;28;20022;-54
2021/06/17 06:26:30;;;;;;;11.48;5.38;;;22.40;99.90;;;;;;4993672;28;20117;-54
2021/06/17 06:28:56;;;;;;;10.23;5.28;;;;;;;;;;5014549;28;20145;-57
2021/06/17 06:31:22;;;;;;;12.65;7.13;;;22.80;99.90;;;;;;4990463;28;20131;-57
2021/06/17 06:33:48;;;;;;;12.02;5.28;;;22.80;99.90;;;;;;4960834;28;20058;-55
2021/06/17 06:36:13;;;;;;;9.43;5.70;;;22.90;99.90;;;;;;5019632;28;20036;-56
2021/06/17 06:38:39;;;;;;;8.25;5.60;;;23.20;99.90;;;;;;5023608;28;20037;-56
2021/06/17 06:41:05;;;;;;;14.25;5.68;;;23.30;99.90;;;;;;5025112;28;20052;-55
2021/06/17 06:43:31;;;;;;;11.32;5.07;;;23.40;99.90;;;;;;5007786;28;20133;-55
2021/06/17 06:45:56;;;;;;;13.02;5.50;;;23.40;99.90;;;;;;5026166;28;20025;-56
2021/06/17 06:48:22;;;;;;;7.85;5.00;;;23.60;99.90;;;;;;5027792;28;20037;-55
2021/06/17 06:50:48;;;;;;;11.23;4.80;;;23.70;99.90;;;;;;5025540;28;20029;-55
2021/06/17 06:53:14;;;;;;;13.05;5.90;;;23.80;99.90;;;;;;5024645;28;20508;-55
2021/06/17 06:55:40;;;;;;;8.70;5.50;;;23.90;99.90;;;;;;5000797;28;20100;-55
2021/06/17 06:58:06;;;;;;;19.75;6.50;;;24.10;99.90;;;;;;5018258;28;20477;-55
2021/06/17 07:00:33;;;;;;;10.98;5.35;;;24.40;99.90;;;;;;5001396;28;20128;-56
2021/06/17 07:02:59;;;;;;;7.40;4.30;;;24.40;99.90;;;;;;5005337;28;20037;-56
2021/06/17 07:05:26;;;;;;;10.25;5.35;;;24.40;99.90;;;;;;5015529;28;20030;-55
2021/06/17 07:07:52;;;;;;;10.57;5.35;;;24.50;99.90;;;;;;5020771;28;20080;-55
2021/06/17 07:10:18;;;;;;;11.60;5.45;;;24.60;99.90;;;;;;5021718;28;20065;-55
2021/06/17 07:12:43;;;;;;;7.65;5.07;;;24.60;99.90;;;;;;5024309;28;20376;-56
2021/06/17 07:15:10;;;;;;;8.80;4.57;;;24.70;99.90;;;;;;5019072;28;20525;-55
2021/06/17 07:17:36;;;;;;;10.52;4.80;;;24.80;99.90;;;;;;5021244;28;20420;-55
2021/06/17 07:20:03;;;;;;;7.38;5.43;;;24.80;99.90;;;;;;4990461;28;20049;-55
2021/06/17 07:22:29;;;;;;;7.38;4.15;;;24.80;99.90;;;;;;4979116;28;20046;-58
2021/06/17 07:24:55;;;;;;;7.00;4.50;;;24.80;99.90;;;;;;5024499;28;20095;-55
2021/06/17 07:27:22;;;;;;;5.97;4.32;;;24.90;99.80;;;;;;5021040;28;20052;-56
2021/06/17 07:29:48;;;;;;;9.93;3.92;;;25.00;99.20;;;;;;5027799;28;20036;-57
2021/06/17 07:32:14;;;;;;;9.18;4.53;;;25.10;99.10;;;;;;5024226;28;20071;-56
2021/06/17 07:34:42;;;;;;;6.32;4.20;;;25.30;99.20;;;;;;4997096;28;20049;-56
2021/06/17 07:37:08;;;;;;;7.50;4.32;;;25.40;99.90;;;;;;5020411;28;20073;-55
2021/06/17 07:39:34;;;;;;;6.05;4.05;;;25.50;98.70;;;;;;5021455;28;20156;-55
2021/06/17 07:41:59;;;;;;;7.88;4.07;;;25.70;98.00;;;;;;5009214;28;20548;-56
2021/06/17 07:44:26;;;;;;;6.90;4.53;;;;;;;;;;4993273;28;20041;-56
2021/06/17 07:46:52;;;;;;;6.10;4.50;;;25.90;98.20;;;;;;5029525;28;20381;-55
2021/06/17 07:49:17;;;;;;;5.90;3.78;;;26.10;99.20;;;;;;5019823;28;20034;-58
2021/06/17 07:51:43;;;;;;;6.00;3.95;;;26.30;98.00;;;;;;5022746;28;20468;-56
2021/06/17 07:54:09;;;;;;;7.22;4.07;;;26.50;99.10;;;;;;5016971;28;21896;-56
2021/06/17 07:56:35;;;;;;;6.05;4.20;;;;;;;;;;5020722;28;20077;-57
2021/06/17 07:59:01;;;;;;;7.88;3.75;;;26.80;96.60;;;;;;5018016;28;20026;-57
2021/06/17 08:01:27;;;;;;;5.78;3.70;;;27.00;97.30;;;;;;5021433;28;20466;-56
2021/06/17 08:03:53;;;;;;;5.53;4.00;;;27.10;95.90;;;;;;5019704;28;20384;-57
2021/06/17 08:06:19;;;;;;;6.32;3.80;;;27.10;96.20;;;;;;5021322;28;20485;-57
2021/06/17 08:08:45;;;;;;;13.75;4.35;;;27.20;96.30;;;;;;5022153;28;20385;-56
2021/06/17 08:11:12;;;;;;;7.68;3.95;;;27.50;95.20;;;;;;5018824;28;20038;-57
2021/06/17 08:13:38;;;;;;;8.73;3.88;;;27.50;95.70;;;;;;5020747;28;20141;-57
2021/06/17 08:16:04;;;;;;;10.38;4.60;;;27.60;96.00;;;;;;4986638;28;20451;-57
2021/06/17 08:18:30;;;;;;;7.88;4.97;;;;;;;;;;5024687;28;20046;-56
2021/06/17 08:21:00;;;;;;;6.05;3.83;;;28.30;94.50;;;;;;5021006;28;20028;-56
2021/06/17 08:23:26;;;;;;;6.93;4.20;;;28.50;94.80;;;;;;5027919;28;20457;-57
2021/06/17 08:25:51;;;;;;;5.40;3.88;;;28.40;94.00;;;;;;5006035;28;20044;-57
2021/06/17 08:28:18;;;;;;;11.23;4.20;;;;;;;;;;5021632;28;20029;-56
2021/06/17 08:30:44;;;;;;;4.55;3.72;;;28.50;93.00;;;;;;5025039;28;20037;-56
2021/06/17 08:33:10;;;;;;;6.20;3.45;;;28.30;93.80;;;;;;5025536;28;20057;-56
2021/06/17 08:35:36;;;;;;;10.27;3.65;;;28.60;93.00;;;;;;5026884;28;20495;-57
2021/06/17 08:38:02;;;;;;;6.15;3.38;;;;;;;;;;5029970;28;20124;-57
2021/06/17 08:40:30;;;;;;;6.50;3.80;;;29.10;92.30;;;;;;5027424;28;20029;-57
2021/06/17 08:42:57;;;;;;;6.00;3.95;;;29.00;92.40;;;;;;5028139;28;20100;-58
2021/06/17 08:45:24;;;;;;;8.45;4.40;;;;;;;;;;5025632;28;20053;-57
2021/06/17 08:47:50;;;;;;;6.78;3.75;;;;;;;;;;5005003;28;20744;-58
2021/06/17 08:50:16;;;;;;;9.40;3.50;;;37.30;95.30;;;;;;5012036;28;20125;-56
2021/06/17 08:52:43;;;;;;;5.43;3.67;;;39.40;78.30;;;;;;5018877;28;20503;-57
2021/06/17 08:55:29;;;;;;;9.00;3.72;;;41.70;75.40;;;;;;5016626;28;20134;-58
2021/06/17 08:57:56;;;;;;;8.73;3.40;;;;;;;;;;5000343;28;20519;-59
2021/06/17 09:00:23;;;;;;;7.07;3.78;;;42.10;65.30;;;;;;5015679;28;20037;-59
2021/06/17 09:03:11;;;;;;;5.72;3.00;;;43.30;65.40;;;;;;5016833;28;20033;-59
2021/06/17 09:05:42;;;;;;;6.10;3.53;;;43.70;63.80;;;;;;5016624;28;20499;-58
2021/06/17 09:08:09;;;;;;;8.95;3.42;;;44.40;63.30;;;;;;5016166;28;20041;-59
2021/06/17 09:10:41;;;;;;;6.97;3.33;;;43.20;60.90;;;;;;5018556;28;20507;-58
2021/06/17 09:13:08;;;;;;;6.78;3.40;;;45.30;59.70;;;;;;5015655;28;20033;-58
2021/06/17 09:15:38;;;;;;;6.25;3.10;;;45.40;58.30;;;;;;5016126;28;20540;-58
2021/06/17 09:18:27;;;;;;;8.10;3.38;;;46.90;58.50;;;;;;4996018;28;20069;-59
2021/06/17 09:20:56;;;;;;;5.18;3.00;;;46.40;57.80;;;;;;4995329;28;20042;-59
2021/06/17 09:23:27;;;;;;;4.70;3.17;;;45.20;57.20;;;;;;5014690;28;20113;-58
2021/06/17 09:25:59;;;;;;;4.32;2.92;;;46.90;56.30;;;;;;5001764;28;20060;-58
2021/06/17 09:28:27;;;;;;;6.38;2.78;;;48.00;56.60;;;;;;4996310;28;20075;-60
2021/06/17 09:30:53;;;;;;;7.15;3.15;;;47.70;55.10;;;;;;4975112;28;20109;-59
2021/06/17 09:33:21;;;;;;;6.43;2.85;;;46.60;55.40;;;;;;4996393;28;20034;-59
2021/06/17 09:35:48;;;;;;;4.53;2.80;;;46.00;53.80;;;;;;4998533;28;20141;-59
2021/06/17 09:38:14;;;;;;;9.13;3.30;;;48.50;54.60;;;;;;4988302;28;20497;-59
2021/06/17 09:40:45;;;;;;;4.95;2.75;;;45.90;54.40;;;;;;4983953;28;20041;-58
2021/06/17 09:43:22;;;;;;;7.72;2.20;;;46.20;54.30;;;;;;4985868;28;20050;-59
2021/06/17 09:45:54;;;;;;;4.18;2.20;;;47.20;53.50;;;;;;4993671;28;20038;-58
2021/06/17 09:48:34;;;;;;;5.22;2.88;;;48.30;53.20;;;;;;5003047;28;20762;-59
2021/06/17 09:51:20;;;;;;;3.78;2.22;;;50.60;53.20;;;;;;4994656;28;20042;-58
2021/06/17 09:53:46;;;;;;;4.88;2.42;;;50.90;51.50;;;;;;4997055;28;20556;-58
2021/06/17 09:56:24;;;;;;;7.60;2.83;;;51.30;51.30;;;;;;5008246;28;20128;-59
2021/06/17 09:58:50;;;;;;;5.32;2.60;;;50.30;51.60;;;;;;5022127;28;20037;-59
2021/06/17 10:01:28;;;;;;;5.47;2.88;;;;;;;;;;4986788;28;20505;-59
2021/06/17 10:04:08;;;;;;;3.63;2.13;;;50.20;52.00;;;;;;5019238;28;20044;-59
2021/06/17 10:06:36;;;;;;;6.22;2.50;;;45.10;52.20;;;;;;4997046;28;20060;-58
2021/06/17 10:09:05;;;;;;;2.85;2.22;;;41.60;54.80;;;;;;4979852;28;20631;-58
2021/06/17 10:11:31;;;;;;;4.70;2.63;;;42.70;54.90;;;;;;5002293;28;20175;-58
2021/06/17 10:13:57;;;;;;;5.43;2.65;;;43.10;56.20;;;;;;5027498;28;20035;-59
2021/06/17 10:16:23;;;;;;;3.45;2.35;;;42.60;64.80;;;;;;5006384;28;20120;-59
2021/06/17 10:18:49;;;;;;;3.72;2.10;;;45.20;53.80;;;;;;5022014;28;20161;-59
2021/06/17 10:21:17;;;;;;;3.30;2.47;;;;;;;;;;4988317;28;20077;-59
2021/06/17 10:23:45;;;;;;;6.65;2.40;;;47.80;52.00;;;;;;5008292;28;20507;-59
2021/06/17 10:26:12;;;;;;;4.78;2.60;;;49.90;51.80;;;;;;5022501;28;20037;-59
2021/06/17 10:28:46;;;;;;;2.95;2.10;;;;;;;;;;5023280;28;20036;-59
2021/06/17 10:31:15;;;;;;;9.02;3.10;;;49.60;77.90;;;;;;5029012;28;20377;-60
2021/06/17 10:33:41;;;;;;;4.03;1.85;;;;;;;;;;5025854;28;20042;-59
2021/06/17 10:36:37;;;;;;;4.65;2.00;;;50.60;48.50;;;;;;5025506;28;20040;-59
2021/06/17 10:39:12;;;;;;;2.75;2.05;;;51.40;73.60;;;;;;5020454;28;20034;-59
2021/06/17 10:41:46;;;;;;;4.80;2.00;;;53.70;48.20;;;;;;5032253;28;20121;-59
2021/06/17 10:44:48;;;;;;;6.82;2.20;;;50.80;47.10;;;;;;5019845;28;20056;-59
2021/06/17 10:47:32;;;;;;;;;;;49.30;48.40;;;;;;5026724;28;20042;-59
2021/06/17 10:50:01;;;;;;;3.42;2.00;;;49.80;48.70;;;;;;5007313;28;19909;-59
2021/06/17 10:52:28;;;;;;;11.13;2.55;;;50.70;47.30;;;;;;5027159;28;20025;-59
2021/06/17 10:55:00;;;;;;;9.25;2.80;;;52.70;47.70;;;;;;5029194;28;20022;-59
2021/06/17 10:57:53;;;;;;;7.07;2.60;;;50.10;47.90;;;;;;5028834;28;20095;-59
2021/06/17 11:00:22;;;;;;;10.48;3.72;;;47.70;48.10;;;;;;5030945;28;20038;-59
2021/06/17 11:02:53;;;;;;;8.93;4.00;;;44.60;60.70;;;;;;5029063;28;20052;-59
2021/06/17 11:05:31;;;;;;;6.50;3.08;;;41.50;50.30;;;;;;5032187;28;20369;-59
2021/06/17 11:08:20;;;;;;;3.10;2.50;;;38.70;52.90;;;;;;5029358;28;20068;-59
2021/06/17 11:10:57;;;;;;;3.65;2.35;;;42.10;53.40;;;;;;5032667;28;20503;-59
2021/06/17 11:13:29;;;;;;;6.25;2.70;;;;;;;;;;5025664;28;20037;-59
2021/06/17 11:16:00;;;;;;;8.90;3.72;;;47.20;50.70;;;;;;5031220;28;20034;-59
2021/06/17 11:18:53;;;;;;;2.35;2.13;;;46.30;49.70;;;;;;5030570;28;20031;-59
2021/06/17 11:21:26;;;;;;;32.67;8.40;;;43.90;51.20;;;;;;5031258;28;20041;-59
2021/06/17 11:24:13;;;;;;;8.70;3.05;;;44.30;51.30;;;;;;5017780;28;20374;-59
2021/06/17 11:26:39;;;;;;;9.63;3.15;;;45.00;53.70;;;;;;5029182;28;20377;-59
2021/06/17 11:29:05;;;;;;;5.13;2.47;;;;;;;;;;5031114;28;20061;-59
2021/06/17 11:31:49;;;;;;;3.95;2.13;;;;;;;;;;5028940;28;20137;-59
2021/06/17 11:34:38;;;;;;;3.35;2.22;;;45.40;48.10;;;;;;5027313;28;20041;-58
2021/06/17 11:37:14;;;;;;;5.53;2.40;;;47.00;49.10;;;;;;5023628;28;20033;-59
2021/06/17 11:39:40;;;;;;;3.08;2.28;;;46.90;48.50;;;;;;5032537;28;20095;-60
2021/06/17 11:42:07;;;;;;;5.72;2.53;;;;;;;;;;4987425;28;20034;-59
2021/06/17 11:44:33;;;;;;;3.10;1.98;;;42.10;55.30;;;;;;5029193;28;20033;-59
2021/06/17 11:47:10;;;;;;;6.93;2.80;;;38.20;54.00;;;;;;5030420;28;20385;-58
2021/06/17 11:49:44;;;;;;;7.03;3.08;;;35.90;66.20;;;;;;5026013;28;20033;-59
2021/06/17 11:52:20;;;;;;;3.30;2.30;;;;;;;;;;5025107;28;20037;-58
2021/06/17 11:54:48;;;;;;;7.82;2.72;;;34.20;58.00;;;;;;5029851;28;20025;-58
2021/06/17 11:57:15;;;;;;;4.97;2.53;;;37.60;57.90;;;;;;5029724;28;20140;-58
2021/06/17 11:59:48;;;;;;;4.75;2.38;;;41.20;54.70;;;;;;4971431;28;20046;-58
2021/06/17 12:02:19;;;;;;;3.88;3.03;;;;;;;;;;5022900;28;20029;-59
2021/06/17 12:05:00;;;;;;;3.13;2.30;;;43.20;50.50;;;;;;5023924;28;20095;-59
2021/06/17 12:07:27;;;;;;;14.20;2.97;;;43.80;51.80;;;;;;5027007;28;20039;-59
2021/06/17 12:09:55;;;;;;;5.38;2.50;;;43.40;52.90;;;;;;5021119;28;20048;-58
2021/06/17 12:12:24;;;;;;;12.38;2.80;;;43.30;51.70;;;;;;5026100;28;20037;-61
2021/06/17 12:14:57;;;;;;;5.65;2.40;;;;;;;;;;5019955;28;20042;-59
2021/06/17 12:17:26;;;;;;;6.18;2.17;;;43.70;81.90;;;;;;5028284;28;20021;-58
2021/06/17 12:19:54;;;;;;;7.18;2.30;;;42.50;49.90;;;;;;5026637;28;20431;-59
2021/06/17 12:22:20;;;;;;;5.75;2.40;;;44.00;50.30;;;;;;5033350;28;20120;-59
2021/06/17 12:24:46;;;;;;;3.22;2.25;;;;;;;;;;4983105;28;20139;-59
2021/06/17 12:27:12;;;;;;;5.47;2.55;;;44.70;81.10;;;;;;5024014;28;20033;-58
2021/06/17 12:29:38;;;;;;;5.53;2.35;;;44.20;49.70;;;;;;5030699;28;20030;-59
2021/06/17 12:32:04;;;;;;;4.22;1.90;;;45.00;49.50;;;;;;5022663;28;20034;-59
2021/06/17 12:34:39;;;;;;;2.85;1.98;;;;;;;;;;4988216;28;20094;-59
2021/06/17 12:37:06;;;;;;;3.00;2.17;;;42.90;50.60;;;;;;5022310;28;20037;-59
2021/06/17 12:39:32;;;;;;;5.70;2.10;;;42.90;51.00;;;;;;5024445;28;20033;-58
2021/06/17 12:41:58;;;;;;;7.07;2.33;;;43.30;50.30;;;;;;5001338;28;20049;-59
2021/06/17 12:44:27;;;;;;;7.07;2.05;;;43.40;51.50;;;;;;5029186;28;20033;-59
2021/06/17 12:47:03;;;;;;;5.10;2.63;;;40.50;51.90;;;;;;5024382;28;20034;-59
2021/06/17 12:54:38;;;;;;;3.95;2.90;;;40.50;51.70;;;;;;5030458;28;20036;-59
2021/06/17 12:57:13;;;;;;;7.63;3.17;;;42.90;52.00;;;;;;5026858;28;20054;-59
2021/06/17 12:59:42;;;;;;;5.85;3.35;;;41.00;51.30;;;;;;5029083;28;20032;-59
2021/06/17 13:02:10;;;;;;;7.45;5.80;;;41.60;52.00;;;;;;5030660;28;20033;-59
2021/06/17 13:04:37;;;;;;;9.90;7.40;;;42.40;51.10;;;;;;4999328;28;20065;-60
2021/06/17 13:07:13;;;;;;;8.35;2.90;;;41.30;51.30;;;;;;5020408;28;20087;-60
2021/06/17 13:09:39;;;;;;;5.55;2.00;;;42.00;50.90;;;;;;5025706;28;20029;-59
2021/06/17 13:12:16;;;;;;;3.75;2.08;;;43.20;72.30;;;;;;5023703;28;20372;-58